Time;durP1;ratioP1;P1;durP2;ratioP2;P2;SDS_P1;SDS_P2;PMS_P1;PMS_P2;Temp;Humidity;BMP_temperature;BMP_pressure;BME280_temperature;BME280_humidity;BME280_pressure;Samples;Min_cycle;Max_cycle;Signal;HPM_P1;HPM_P2
2023/03/14 00:00:33;;;;;;;13.52;5.53;;;;;;;9.85;59.73;98968.25;4352233;32;20098;-93
2023/03/14 00:02:58;;;;;;;15.63;6.03;;;;;;;9.79;59.74;98967.66;4356836;32;20098;-90
2023/03/14 00:05:24;;;;;;;13.45;6.28;;;;;;;9.80;59.74;98965.00;4380160;32;20137;-91
2023/03/14 00:07:49;;;;;;;13.88;6.75;;;;;;;9.73;59.74;98953.19;4361766;32;20134;-91
2023/03/14 00:10:15;;;;;;;8.90;5.65;;;;;;;9.74;59.74;98949.66;4366583;32;20142;-91
2023/03/14 00:12:41;;;;;;;14.63;6.32;;;;;;;9.83;59.74;98941.47;4367592;32;20134;-91
2023/03/14 00:15:07;;;;;;;12.52;6.32;;;;;;;9.88;59.74;98938.69;4378314;32;20133;-91
2023/03/14 00:17:33;;;;;;;14.18;6.15;;;;;;;9.96;59.75;98934.03;4368111;32;20116;-91
2023/03/14 00:20:04;;;;;;;11.48;5.87;;;;;;;9.99;59.75;98931.28;4380910;32;20102;-92
2023/03/14 00:22:31;;;;;;;10.18;5.50;;;;;;;10.06;59.75;98917.09;4381355;32;20136;-93
2023/03/14 00:24:56;;;;;;;13.82;6.40;;;;;;;10.07;59.75;98908.38;4380301;32;20106;-92
2023/03/14 00:27:22;;;;;;;13.55;6.18;;;;;;;9.81;59.74;98924.25;4360451;32;20514;-93
2023/03/14 00:29:47;;;;;;;11.57;6.03;;;;;;;9.87;59.75;98917.94;4356010;32;20090;-93
2023/03/14 00:32:12;;;;;;;11.55;5.35;;;;;;;9.93;59.74;98910.72;4380770;32;20175;-93
2023/03/14 00:34:38;;;;;;;12.65;5.45;;;;;;;9.95;59.75;98918.50;4363273;32;20151;-92
2023/03/14 00:37:03;;;;;;;10.50;6.22;;;;;;;9.80;59.74;98915.62;4368477;32;20345;-92
2023/03/14 00:39:29;;;;;;;11.98;6.10;;;;;;;9.80;59.75;98904.37;4354942;32;20189;-93
2023/03/14 00:41:54;;;;;;;14.60;5.70;;;;;;;9.97;59.75;98895.87;4368443;32;20107;-92
2023/03/14 00:44:20;;;;;;;10.52;5.97;;;;;;;10.05;59.75;98893.78;4364519;32;20129;-93
2023/03/14 00:46:45;;;;;;;12.30;6.10;;;;;;;10.05;59.76;98894.63;4355463;32;20107;-93
2023/03/14 00:49:10;;;;;;;11.25;6.12;;;;;;;9.79;59.74;98897.50;4354588;32;20152;-92
2023/03/14 00:51:36;;;;;;;11.30;5.62;;;;;;;9.97;59.75;98899.31;4368431;32;20110;-92
2023/03/14 00:54:01;;;;;;;11.40;5.78;;;;;;;9.93;59.74;98883.88;4364357;32;20140;-92
2023/03/14 00:56:27;;;;;;;14.68;6.05;;;;;;;9.89;59.74;98888.37;4380796;32;20095;-92
2023/03/14 00:58:55;;;;;;;10.35;6.12;;;;;;;10.00;59.75;98882.72;4345643;32;20147;-93
2023/03/14 01:01:21;;;;;;;11.48;5.70;;;;;;;9.90;59.74;98884.03;4380560;32;20134;-93
2023/03/14 01:03:46;;;;;;;11.82;6.00;;;;;;;9.89;59.74;98890.97;4366783;32;20099;-94
2023/03/14 01:06:15;;;;;;;12.95;6.00;;;;;;;9.73;59.74;98882.16;4380958;32;20094;-93
2023/03/14 01:08:41;;;;;;;11.13;6.07;;;;;;;9.65;59.73;98879.03;4370568;32;20099;-93
2023/03/14 01:11:08;;;;;;;13.82;7.03;;;;;;;9.79;59.74;98887.09;4368270;32;20487;-94
2023/03/14 01:13:33;;;;;;;13.60;6.30;;;;;;;9.65;59.73;98874.66;4356011;32;20199;-94
2023/03/14 01:16:06;;;;;;;16.52;7.10;;;;;;;9.64;59.73;98866.94;4373802;32;20444;-95
2023/03/14 01:18:32;;;;;;;12.30;5.93;;;;;;;9.70;59.73;98875.34;4368062;32;20458;-93
2023/03/14 01:20:58;;;;;;;14.68;7.03;;;;;;;9.67;59.73;98866.81;4368046;32;20114;-94
2023/03/14 01:23:23;;;;;;;14.40;6.50;;;;;;;9.80;59.74;98865.37;4368347;32;20102;-94
2023/03/14 01:25:52;;;;;;;13.40;6.70;;;;;;;9.71;59.73;98858.84;4370096;32;20086;-95
2023/03/14 01:28:17;;;;;;;12.30;6.12;;;;;;;9.79;59.74;98841.16;4395378;32;20715;-94
2023/03/14 01:30:43;;;;;;;10.68;5.55;;;;;;;9.75;59.74;98833.56;4380651;32;20107;-94
2023/03/14 01:33:08;;;;;;;12.95;6.22;;;;;;;9.72;59.74;98821.56;4380493;32;20417;-94
2023/03/14 01:35:34;;;;;;;11.77;6.35;;;;;;;9.68;59.73;98808.72;4382804;32;20090;-95
2023/03/14 01:37:59;;;;;;;13.82;6.55;;;;;;;9.50;59.72;98819.03;4357984;32;20146;-94
2023/03/14 01:40:24;;;;;;;14.10;6.25;;;;;;;9.53;59.72;98808.50;4382994;32;20136;-95
2023/03/14 01:42:57;;;;;;;14.82;6.55;;;;;;;9.52;59.72;98817.19;4357795;32;20183;-94
2023/03/14 01:45:53;;;;;;;13.85;6.75;;;;;;;9.37;59.71;98804.84;4370411;32;20107;-95
2023/03/14 01:48:19;;;;;;;21.40;7.43;;;;;;;9.27;59.71;98797.53;4395680;32;20636;-95
2023/03/14 01:50:45;;;;;;;11.95;6.37;;;;;;;9.31;59.70;98789.53;4370889;32;20099;-95
2023/03/14 01:53:10;;;;;;;12.80;6.57;;;;;;;9.31;59.71;98781.75;4358043;32;20229;-94
2023/03/14 01:55:36;;;;;;;11.95;6.60;;;;;;;9.15;59.70;98788.47;4382852;32;20090;-95
2023/03/14 01:58:03;;;;;;;11.32;6.05;;;;;;;9.19;59.71;98777.06;4370477;32;20118;-95
2023/03/14 02:00:28;;;;;;;12.98;6.05;;;;;;;9.27;59.71;98769.81;4370514;32;20114;-95
2023/03/14 02:02:56;;;;;;;14.02;6.25;;;;;;;9.17;59.70;98774.53;4380194;32;20158;-94
2023/03/14 02:05:23;;;;;;;12.45;6.82;;;;;;;9.26;59.71;98770.72;4368485;32;20201;-94
2023/03/14 02:07:50;;;;;;;12.43;6.10;;;;;;;9.20;59.71;98770.94;4363515;32;20102;-94
2023/03/14 02:10:18;;;;;;;14.52;7.00;;;;;;;9.11;59.69;98764.41;4374350;32;20111;-94
2023/03/14 02:12:44;;;;;;;13.50;6.53;;;;;;;9.10;59.70;98765.31;4358025;32;20106;-93
2023/03/14 02:15:10;;;;;;;12.68;6.37;;;;;;;9.09;59.69;98760.19;4380981;32;20091;-94
2023/03/14 02:17:35;;;;;;;15.02;6.87;;;;;;;9.08;59.70;98754.16;4369835;32;20136;-93
2023/03/14 02:20:07;;;;;;;12.65;6.28;;;;;;;9.07;59.69;98762.00;4368945;32;20114;-92
2023/03/14 02:22:33;;;;;;;15.93;6.72;;;;;;;9.13;59.70;98747.00;4389704;32;20118;-94
2023/03/14 02:25:16;;;;;;;13.93;6.47;;;;;;;9.00;59.69;98738.06;4361022;32;20164;-94
2023/03/14 02:27:42;;;;;;;12.85;6.30;;;;;;;9.01;59.69;98738.91;4367725;32;20727;-96
2023/03/14 02:30:15;;;;;;;13.38;7.20;;;;;;;9.00;59.69;98739.81;4356945;32;20160;-95
2023/03/14 02:32:43;;;;;;;10.05;5.15;;;;;;;8.98;59.69;98736.41;4370452;32;20208;-95
2023/03/14 02:35:11;;;;;;;14.63;6.72;;;;;;;9.07;59.69;98733.44;4380189;32;20722;-95
2023/03/14 02:37:41;;;;;;;15.70;7.00;;;;;;;9.02;59.69;98727.63;4374313;32;20070;-94
2023/03/14 02:40:07;;;;;;;13.57;6.90;;;;;;;9.17;59.70;98721.75;4369799;32;20111;-93
2023/03/14 02:42:32;;;;;;;13.65;6.12;;;;;;;9.04;59.69;98723.19;4379945;32;20119;-94
2023/03/14 02:45:21;;;;;;;15.98;7.28;;;;;;;9.07;59.69;98723.91;4370085;32;20145;-95
2023/03/14 02:47:54;;;;;;;11.23;6.37;;;;;;;9.13;59.70;98723.62;4382422;32;20142;-94
2023/03/14 02:50:21;;;;;;;16.17;7.40;;;;;;;9.02;59.69;98731.06;4350464;32;20138;-94
2023/03/14 02:52:46;;;;;;;15.10;7.20;;;;;;;9.18;59.70;98721.69;4370109;32;20193;-94
2023/03/14 02:55:12;;;;;;;12.90;6.80;;;;;;;9.43;59.72;98712.84;4380221;32;20157;-94
2023/03/14 02:57:37;;;;;;;10.63;6.07;;;;;;;9.26;59.71;98716.19;4380538;32;20436;-94
2023/03/14 03:00:06;;;;;;;12.50;6.57;;;;;;;9.24;59.70;98718.00;4380234;32;20411;-91
2023/03/14 03:02:32;;;;;;;12.73;6.43;;;;;;;9.31;59.71;98706.44;4380815;32;20114;-94
2023/03/14 03:04:57;;;;;;;11.77;5.90;;;;;;;9.32;59.71;98697.75;4381959;32;20137;-94
2023/03/14 03:07:23;;;;;;;14.73;6.87;;;;;;;9.29;59.71;98699.63;4382007;32;20149;-94
2023/03/14 03:09:48;;;;;;;14.63;6.75;;;;;;;9.32;59.70;98695.13;4382268;32;20132;-94
2023/03/14 03:12:14;;;;;;;14.70;6.60;;;;;;;9.16;59.70;98694.94;4357227;32;20106;-95
2023/03/14 03:14:39;;;;;;;12.73;6.07;;;;;;;9.26;59.71;98690.22;4380060;32;20138;-94
2023/03/14 03:17:05;;;;;;;12.37;6.05;;;;;;;9.23;59.70;98683.41;4380924;32;20135;-95
2023/03/14 03:19:31;;;;;;;12.88;6.30;;;;;;;9.16;59.70;98671.59;4382464;32;20617;-96
2023/03/14 03:21:57;;;;;;;19.12;7.62;;;;;;;9.30;59.71;98675.34;4380407;32;20136;-94
2023/03/14 03:24:23;;;;;;;16.85;6.40;;;;;;;9.21;59.71;98661.84;4373500;32;20742;-95
2023/03/14 03:26:48;;;;;;;14.93;6.47;;;;;;;8.93;59.68;98664.78;4382664;32;20124;-95
2023/03/14 03:29:14;;;;;;;14.30;6.50;;;;;;;9.16;59.70;98662.94;4357420;32;20160;-95
2023/03/14 03:31:39;;;;;;;15.73;7.15;;;;;;;9.04;59.70;98648.75;4392846;32;20106;-95
2023/03/14 03:34:05;;;;;;;16.42;6.65;;;;;;;9.20;59.70;98661.91;4361541;32;20103;-95
2023/03/14 03:36:30;;;;;;;16.25;6.40;;;;;;;9.26;59.70;98642.63;4382677;32;20748;-94
2023/03/14 03:38:56;;;;;;;12.37;5.47;;;;;;;9.40;59.71;98643.69;4357816;32;20442;-93
2023/03/14 03:41:21;;;;;;;10.18;5.40;;;;;;;9.63;59.72;98654.81;4395156;32;20099;-96
2023/03/14 03:43:46;;;;;;;10.35;5.75;;;;;;;9.57;59.73;98655.09;4358534;32;20174;-94
2023/03/14 03:46:12;;;;;;;13.13;6.65;;;;;;;9.69;59.72;98644.97;4385671;32;20147;-94
2023/03/14 03:48:37;;;;;;;12.80;6.57;;;;;;;9.78;59.73;98643.72;4361132;32;20492;-95
2023/03/14 03:51:03;;;;;;;10.77;6.82;;;;;;;9.87;59.75;98639.84;4343370;32;20121;-96
2023/03/14 03:53:29;;;;;;;9.98;6.12;;;;;;;9.69;59.73;98651.91;4348427;32;20114;-94
2023/03/14 03:55:54;;;;;;;14.15;6.72;;;;;;;9.71;59.73;98655.31;4345339;32;20166;-94
2023/03/14 03:58:20;;;;;;;12.60;6.07;;;;;;;9.67;59.73;98662.38;4357423;32;20364;-95
2023/03/14 04:00:45;;;;;;;10.65;6.25;;;;;;;9.73;59.74;98656.09;4355197;32;20177;-95
2023/03/14 04:03:11;;;;;;;13.45;6.68;;;;;;;9.95;59.75;98655.94;4381297;32;20220;-95
2023/03/14 04:05:36;;;;;;;13.07;5.57;;;;;;;9.97;59.74;98657.53;4394471;32;20118;-94
2023/03/14 04:08:02;;;;;;;13.10;6.25;;;;;;;9.94;59.75;98660.28;4381635;32;20399;-94
2023/03/14 04:10:28;;;;;;;11.25;5.37;;;;;;;9.89;59.74;98672.63;4381670;32;20099;-94
2023/03/14 04:12:53;;;;;;;11.23;6.00;;;;;;;9.94;59.75;98667.25;4369494;32;20121;-95
2023/03/14 04:15:19;;;;;;;12.70;6.75;;;;;;;9.91;59.74;98654.38;4369182;32;20098;-95
2023/03/14 04:17:44;;;;;;;11.10;6.18;;;;;;;9.91;59.74;98656.97;4369419;32;20166;-94
2023/03/14 04:20:10;;;;;;;14.50;6.32;;;;;;;9.96;59.75;98658.47;4369286;32;20138;-95
2023/03/14 04:22:37;;;;;;;8.95;5.62;;;;;;;9.90;59.74;98642.28;4369388;32;20055;-94
2023/03/14 04:25:03;;;;;;;11.68;5.82;;;;;;;9.80;59.74;98658.31;4356409;32;20102;-93
2023/03/14 04:27:28;;;;;;;12.13;6.28;;;;;;;9.86;59.75;98672.78;4356542;32;20491;-93
2023/03/14 04:29:54;;;;;;;12.13;5.97;;;;;;;9.86;59.73;98667.59;4366425;32;20114;-94
2023/03/14 04:32:19;;;;;;;11.50;5.68;;;;;;;9.93;59.74;98661.19;4368945;32;20415;-93
2023/03/14 04:34:45;;;;;;;12.57;6.18;;;;;;;9.85;59.73;98660.69;4367984;32;20676;-92
2023/03/14 04:37:10;;;;;;;11.55;5.85;;;;;;;9.87;59.74;98661.47;4368810;32;20604;-94
2023/03/14 04:39:36;;;;;;;14.48;6.80;;;;;;;9.75;59.73;98662.06;4381175;32;20771;-93
2023/03/14 04:42:01;;;;;;;9.30;5.97;;;;;;;9.88;59.74;98668.34;4368562;32;20091;-93
2023/03/14 04:44:27;;;;;;;13.48;6.62;;;;;;;9.87;59.73;98647.62;4368676;32;20122;-93
2023/03/14 04:46:52;;;;;;;13.75;6.05;;;;;;;9.75;59.73;98649.91;4385738;32;20114;-94
2023/03/14 04:49:18;;;;;;;13.13;6.70;;;;;;;9.72;59.74;98647.44;4359230;32;20186;-94
2023/03/14 04:51:43;;;;;;;13.52;5.97;;;;;;;9.80;59.74;98645.31;4380578;32;20086;-94
2023/03/14 04:54:08;;;;;;;11.70;6.10;;;;;;;9.78;59.73;98644.56;4379419;32;20135;-94
2023/03/14 04:56:34;;;;;;;10.30;5.93;;;;;;;9.87;59.74;98648.47;4380232;32;20216;-92
2023/03/14 04:58:59;;;;;;;11.75;6.28;;;;;;;9.83;59.73;98655.56;4380042;32;20152;-92
2023/03/14 05:01:25;;;;;;;12.57;6.75;;;;;;;9.73;59.73;98649.12;4375097;32;20106;-91
2023/03/14 05:03:50;;;;;;;15.70;6.37;;;;;;;9.80;59.74;98649.69;4366981;32;20112;-91
2023/03/14 05:06:16;;;;;;;11.00;6.18;;;;;;;9.80;59.74;98657.47;4367394;32;20142;-94
2023/03/14 05:08:41;;;;;;;14.10;6.95;;;;;;;9.93;59.74;98648.19;4380068;32;20121;-94
2023/03/14 05:11:09;;;;;;;11.52;6.10;;;;;;;9.67;59.73;98649.38;4355827;32;20082;-92
2023/03/14 05:13:34;;;;;;;10.68;5.35;;;;;;;9.85;59.73;98645.94;4354049;32;20188;-93
2023/03/14 05:16:06;;;;;;;10.93;5.68;;;;;;;9.91;59.74;98646.56;4370929;32;20110;-95
2023/03/14 05:18:32;;;;;;;14.52;6.20;;;;;;;9.85;59.74;98639.91;4360618;32;20106;-96
2023/03/14 05:20:57;;;;;;;11.00;5.87;;;;;;;9.79;59.74;98641.03;4366189;32;20157;-94
2023/03/14 05:23:23;;;;;;;11.30;5.60;;;;;;;9.95;59.74;98629.94;4384397;32;20435;-93
2023/03/14 05:25:49;;;;;;;10.40;5.93;;;;;;;9.97;59.74;98628.09;4375170;32;20139;-96
2023/03/14 05:28:15;;;;;;;10.43;5.80;;;;;;;10.04;59.75;98632.09;4367126;32;20428;-94
2023/03/14 05:30:40;;;;;;;12.63;5.78;;;;;;;10.18;59.76;98632.28;4373533;32;20116;-94
2023/03/14 05:33:06;;;;;;;17.92;6.55;;;;;;;10.00;59.74;98634.00;4357001;32;20134;-94
2023/03/14 05:35:31;;;;;;;12.37;5.80;;;;;;;10.19;59.76;98620.97;4361950;32;20526;-94
2023/03/14 05:37:56;;;;;;;13.80;6.12;;;;;;;10.15;59.75;98617.66;4358648;32;20132;-94
2023/03/14 05:40:22;;;;;;;12.00;6.00;;;;;;;10.20;59.75;98607.03;4376504;32;20106;-91
2023/03/14 05:42:47;;;;;;;14.40;6.20;;;;;;;10.30;59.76;98616.09;4369024;32;20101;-94
2023/03/14 05:45:13;;;;;;;12.93;5.80;;;;;;;10.49;59.78;98616.03;4372342;32;20156;-92
2023/03/14 05:47:38;;;;;;;15.32;6.07;;;;;;;10.67;59.78;98612.53;4359837;32;20114;-92
2023/03/14 05:50:04;;;;;;;9.48;5.72;;;;;;;10.88;59.80;98617.53;4382355;32;20341;-92
2023/03/14 05:52:29;;;;;;;13.20;6.07;;;;;;;11.07;59.81;98615.66;4381101;32;20463;-93
2023/03/14 05:54:55;;;;;;;12.65;5.53;;;;;;;11.15;59.82;98612.69;4369589;32;20114;-91
2023/03/14 05:57:20;;;;;;;11.15;5.47;;;;;;;11.18;59.81;98615.13;4379091;32;20114;-92
2023/03/14 05:59:46;;;;;;;12.18;5.62;;;;;;;11.41;59.83;98613.91;4367098;32;20126;-93
2023/03/14 06:02:11;;;;;;;11.18;5.43;;;;;;;11.53;59.84;98613.25;4378463;32;20114;-94
2023/03/14 06:04:37;;;;;;;10.93;5.93;;;;;;;11.67;59.84;98608.97;4357608;32;20146;-94
2023/03/14 06:07:02;;;;;;;11.95;6.15;;;;;;;11.96;59.86;98601.34;4381859;32;20232;-94
2023/03/14 06:09:27;;;;;;;12.27;5.65;;;;;;;12.07;59.86;98603.34;4369768;32;20374;-94
2023/03/14 06:11:53;;;;;;;9.73;5.57;;;;;;;12.18;59.87;98607.03;4364646;32;20713;-92
2023/03/14 06:14:18;;;;;;;10.68;6.37;;;;;;;12.21;59.87;98591.19;4357265;32;20446;-95
2023/03/14 06:16:44;;;;;;;10.32;5.43;;;;;;;12.22;59.87;98600.69;4380244;32;20136;-95
2023/03/14 06:19:10;;;;;;;11.45;5.43;;;;;;;12.44;59.88;98594.25;4370253;32;20095;-94
2023/03/14 06:21:35;;;;;;;11.90;5.47;;;;;;;12.54;59.89;98585.81;4357806;32;20142;-95
2023/03/14 06:24:01;;;;;;;11.35;5.75;;;;;;;12.65;59.89;98579.94;4370341;32;20184;-94
2023/03/14 06:26:26;;;;;;;10.02;5.62;;;;;;;12.65;59.89;98576.50;4379885;32;20142;-93
2023/03/14 06:28:54;;;;;;;9.63;5.12;;;;;;;12.76;59.90;98589.75;4369015;32;20091;-93
2023/03/14 06:31:19;;;;;;;9.93;4.97;;;;;;;12.85;59.90;98581.38;4369786;32;20463;-95
2023/03/14 06:33:45;;;;;;;8.48;5.15;;;;;;;12.74;59.90;98582.00;4369872;32;20169;-95
2023/03/14 06:36:10;;;;;;;10.68;5.45;;;;;;;12.87;59.90;98584.75;4355047;32;20103;-94
2023/03/14 06:38:35;;;;;;;11.00;4.90;;;;;;;12.87;59.91;98588.19;4367639;32;20502;-92
2023/03/14 06:41:05;;;;;;;12.90;5.37;;;;;;;13.00;59.91;98595.28;4378026;32;20166;-93
2023/03/14 06:43:30;;;;;;;9.95;4.62;;;;;;;13.07;59.92;98592.22;4383253;32;20106;-94
2023/03/14 06:45:56;;;;;;;9.80;5.10;;;;;;;13.28;59.93;98595.34;4366639;32;20147;-92
2023/03/14 06:48:21;;;;;;;12.35;5.43;;;;;;;13.32;59.93;98594.22;4361494;32;20103;-95
2023/03/14 06:50:48;;;;;;;10.02;5.60;;;;;;;13.33;59.93;98598.50;4357771;32;20131;-96
2023/03/14 06:53:13;;;;;;;8.60;5.18;;;;;;;13.49;59.94;98598.41;4369748;32;20122;-94
2023/03/14 06:55:39;;;;;;;12.93;5.47;;;;;;;13.55;59.94;98603.25;4381417;32;20141;-94
2023/03/14 06:58:06;;;;;;;16.05;5.28;;;;;;;13.50;59.94;98605.31;4370003;32;20122;-95
2023/03/14 07:00:32;;;;;;;14.35;4.80;;;;;;;13.57;59.95;98603.16;4368444;32;20091;-94
2023/03/14 07:02:57;;;;;;;9.55;5.12;;;;;;;13.71;59.95;98611.78;4367717;32;20190;-95
2023/03/14 07:05:23;;;;;;;11.60;5.57;;;;;;;13.75;59.95;98602.84;4379216;32;20121;-95
2023/03/14 07:07:48;;;;;;;11.70;5.60;;;;;;;13.86;59.95;98603.94;4382695;32;20102;-95
2023/03/14 07:10:13;;;;;;;11.48;5.68;;;;;;;13.86;59.95;98598.69;4366386;32;20168;-94
2023/03/14 07:12:39;;;;;;;11.00;5.57;;;;;;;14.00;59.96;98591.66;4390420;32;20117;-96
2023/03/14 07:15:05;;;;;;;9.77;4.97;;;;;;;14.08;59.97;98592.00;4361365;32;20098;-96
2023/03/14 07:17:30;;;;;;;10.48;5.00;;;;;;;14.39;59.99;98597.84;4371263;32;20114;-95
2023/03/14 07:20:07;;;;;;;14.52;5.55;;;;;;;14.40;59.99;98597.72;4372274;32;20088;-96
2023/03/14 07:22:33;;;;;;;12.68;5.62;;;;;;;14.54;59.99;98596.03;4419138;32;20150;-94
2023/03/14 07:25:14;;;;;;;11.63;5.68;;;;;;;14.73;60.01;98599.09;4363266;32;20206;-96
2023/03/14 07:28:04;;;;;;;11.57;5.20;;;;;;;14.85;60.01;98597.41;4392590;32;20110;-96
2023/03/14 07:30:57;;;;;;;11.95;6.25;;;;;;;14.91;60.01;98583.94;4397272;32;20108;-96
2023/03/14 07:33:48;;;;;;;8.30;5.47;;;;;;;14.93;60.03;98588.12;4359705;33;20084;-95
2023/03/14 07:36:49;;;;;;;11.27;5.75;;;;;;;14.86;60.02;98586.00;4360001;33;20126;-96
2023/03/14 07:39:27;;;;;;;9.73;5.90;;;;;;;15.05;60.03;98573.31;4359806;33;20076;-96
2023/03/14 07:42:35;;;;;;;10.93;5.53;;;;;;;15.29;60.03;98570.78;4348079;33;20072;-95
2023/03/14 07:45:17;;;;;;;12.68;5.78;;;;;;;15.48;60.05;98559.84;4359217;32;20155;-96
2023/03/14 07:48:11;;;;;;;14.80;5.82;;;;;;;15.50;60.05;98566.66;4359828;32;20115;-96
2023/03/14 07:50:56;;;;;;;13.90;5.65;;;;;;;15.69;60.06;98570.63;4349136;32;20158;-94
2023/03/14 07:53:21;;;;;;;13.43;6.97;;;;;;;15.97;60.07;98562.44;4338558;32;20171;-95
2023/03/14 07:55:47;;;;;;;10.13;5.35;;;;;;;16.03;60.08;98554.09;4349203;32;20480;-95
2023/03/14 07:58:13;;;;;;;11.18;5.90;;;;;;;16.21;60.09;98552.75;4336806;33;20126;-94
2023/03/14 08:00:38;;;;;;;13.57;5.95;;;;;;;16.40;60.10;98543.50;4349152;33;20166;-95
2023/03/14 08:03:06;;;;;;;12.77;5.12;;;;;;;16.54;60.11;98538.88;4338104;33;20130;-96
2023/03/14 08:05:36;;;;;;;11.40;5.35;;;;;;;16.65;60.12;98530.19;4325082;33;20119;-94
2023/03/14 08:08:02;;;;;;;12.02;5.25;;;;;;;16.63;60.11;98526.00;4340448;33;20186;-96
2023/03/14 08:10:28;;;;;;;8.48;4.68;;;;;;;16.64;60.11;98528.53;4330405;33;20134;-95
2023/03/14 08:12:55;;;;;;;12.32;5.70;;;;;;;16.84;60.12;98527.03;4337540;33;20174;-96
2023/03/14 08:15:20;;;;;;;10.63;4.93;;;;;;;17.01;60.13;98516.03;4336769;33;20111;-96
2023/03/14 08:17:50;;;;;;;9.02;4.70;;;;;;;17.22;60.15;98503.00;4349521;32;20131;-96
2023/03/14 08:20:18;;;;;;;11.02;5.78;;;;;;;17.34;60.15;98509.09;4338081;32;20150;-96
2023/03/14 08:22:44;;;;;;;10.13;5.25;;;;;;;17.55;60.16;98509.19;4342458;32;20063;-96
2023/03/14 08:25:10;;;;;;;10.20;4.90;;;;;;;17.70;60.17;98518.47;4370165;32;20133;-96
2023/03/14 08:27:37;;;;;;;15.38;5.12;;;;;;;17.84;60.18;98507.69;4370750;32;20186;-96
2023/03/14 08:30:04;;;;;;;10.68;5.43;;;;;;;17.94;60.19;98505.97;4370992;32;20090;-94
2023/03/14 08:32:29;;;;;;;14.80;5.55;;;;;;;18.15;60.18;98507.78;4383314;32;20106;-95
2023/03/14 08:34:55;;;;;;;8.60;4.75;;;;;;;18.27;60.20;98505.00;4382957;32;20176;-96
2023/03/14 08:37:21;;;;;;;10.90;5.03;;;;;;;18.45;60.20;98499.97;4359611;32;20114;-94
2023/03/14 08:39:46;;;;;;;8.57;4.32;;;;;;;18.69;60.23;98497.06;4386972;32;20082;-96
2023/03/14 08:42:12;;;;;;;6.90;3.58;;;;;;;18.93;60.24;98496.81;4382489;32;20455;-96
2023/03/14 08:44:38;;;;;;;7.80;4.28;;;;;;;18.88;60.23;98488.44;4382645;32;20770;-96
2023/03/14 08:47:03;;;;;;;8.55;3.97;;;;;;;18.99;60.24;98483.09;4360158;32;20158;-96
2023/03/14 08:49:29;;;;;;;9.00;3.87;;;;;;;19.04;60.24;98486.16;4383951;32;20094;-95
2023/03/14 08:51:54;;;;;;;6.60;3.80;;;;;;;19.32;60.26;98466.94;4384624;32;20086;-95
2023/03/14 08:54:20;;;;;;;5.55;2.97;;;;;;;19.49;60.27;98468.09;4368922;32;20345;-93
2023/03/14 08:56:45;;;;;;;5.68;3.20;;;;;;;19.45;60.25;98452.69;4394404;32;20125;-93
2023/03/14 08:59:11;;;;;;;5.00;2.50;;;;;;;19.48;60.27;98436.56;4369565;32;20102;-94
2023/03/14 09:01:36;;;;;;;6.82;4.15;;;;;;;19.31;60.26;98438.87;4391485;32;20155;-93
2023/03/14 09:04:02;;;;;;;6.62;3.00;;;;;;;19.30;60.26;98447.78;4392474;32;20648;-94
2023/03/14 09:06:27;;;;;;;5.87;3.30;;;;;;;19.48;60.26;98445.31;4369850;32;20169;-96
2023/03/14 09:08:53;;;;;;;5.22;3.28;;;;;;;19.47;60.27;98442.81;4391952;32;20126;-94
2023/03/14 09:11:18;;;;;;;6.40;3.20;;;;;;;19.50;60.27;98435.44;4387309;32;20079;-95
2023/03/14 09:13:44;;;;;;;6.55;3.55;;;;;;;19.66;60.27;98432.31;4369303;32;20083;-96
2023/03/14 09:16:10;;;;;;;8.73;3.33;;;;;;;19.70;60.28;98422.31;4391587;32;20087;-96
2023/03/14 09:18:35;;;;;;;6.57;3.10;;;;;;;19.92;60.29;98430.78;4392444;32;20136;-96
2023/03/14 09:21:01;;;;;;;8.20;3.72;;;;;;;20.04;60.29;98435.91;4392274;32;20070;-96
2023/03/14 09:23:27;;;;;;;7.22;3.70;;;;;;;20.06;60.29;98429.50;4392535;32;20148;-96
2023/03/14 09:25:56;;;;;;;6.70;3.12;;;;;;;20.20;60.30;98429.06;4401125;32;20150;-96
2023/03/14 09:28:22;;;;;;;6.45;3.55;;;;;;;20.19;60.30;98423.94;4372709;32;20105;-95
2023/03/14 09:30:47;;;;;;;6.80;3.22;;;;;;;20.41;60.31;98422.81;4393806;32;20115;-96
2023/03/14 09:33:13;;;;;;;9.23;3.72;;;;;;;20.37;60.31;98411.66;4404801;32;20147;-94
2023/03/14 09:35:38;;;;;;;8.60;3.10;;;;;;;20.57;60.32;98407.16;4383950;32;20063;-95
2023/03/14 09:38:05;;;;;;;6.22;2.78;;;;;;;20.80;60.34;98389.09;4396575;32;20131;-95
2023/03/14 09:40:40;;;;;;;4.72;2.55;;;;;;;20.69;60.32;98392.78;4413207;27;20135;-93
2023/03/14 09:43:05;;;;;;;7.80;2.62;;;;;;;20.83;60.34;98379.09;4396194;32;20088;-91
2023/03/14 09:45:40;;;;;;;5.12;2.10;;;;;;;21.02;60.35;98370.19;4408969;32;20114;-94
2023/03/14 09:48:05;;;;;;;4.20;1.00;;;;;;;21.02;60.35;98370.19;4420760;32;20055;-92
2023/03/14 09:50:39;;;;;;;2.10;0.77;;;;;;;21.08;60.34;98366.97;4420973;32;20078;-93
2023/03/14 09:53:09;;;;;;;2.92;0.70;;;;;;;21.07;60.36;98367.94;4383771;32;20074;-93
2023/03/14 09:55:34;;;;;;;1.70;0.80;;;;;;;21.22;60.35;98365.59;4408970;32;20102;-94
2023/03/14 09:58:02;;;;;;;5.68;1.00;;;;;;;21.42;60.37;98355.75;4394805;32;20062;-95
2023/03/14 10:00:29;;;;;;;3.67;1.60;;;;;;;21.51;60.37;98351.34;4373065;32;20121;-93
2023/03/14 10:02:56;;;;;;;2.00;0.90;;;;;;;21.76;60.38;98337.31;4377788;32;20107;-93
2023/03/14 10:05:23;;;;;;;2.75;0.77;;;;;;;21.88;60.39;98337.91;4380606;32;20360;-94
2023/03/14 10:07:48;;;;;;;6.30;1.10;;;;;;;22.10;60.41;98329.47;4382235;32;20155;-93
2023/03/14 10:10:20;;;;;;;4.68;0.95;;;;;;;22.11;60.40;98331.16;4381811;32;20102;-93
2023/03/14 10:12:47;;;;;;;6.25;0.80;;;;;;;22.33;60.42;98337.72;4382178;32;20094;-93
2023/03/14 10:15:18;;;;;;;3.62;0.85;;;;;;;22.54;60.43;98324.09;4382305;32;20106;-93
2023/03/14 10:17:47;;;;;;;6.70;1.52;;;;;;;22.63;60.43;98318.63;4382559;32;20747;-93
2023/03/14 10:20:34;;;;;;;2.05;1.00;;;;;;;22.61;60.43;98323.28;4381134;32;20082;-93
2023/03/14 10:23:02;;;;;;;3.08;0.80;;;;;;;22.80;60.44;98326.66;4393926;32;20369;-92
2023/03/14 10:25:29;;;;;;;4.97;0.68;;;;;;;22.86;60.44;98326.88;4395696;32;20120;-93
2023/03/14 10:27:54;;;;;;;2.53;1.08;;;;;;;22.96;60.45;98327.59;4381469;32;20058;-94
2023/03/14 10:30:35;;;;;;;4.53;0.93;;;;;;;22.90;60.45;98320.25;4380920;32;20142;-94
2023/03/14 10:33:31;;;;;;;4.03;0.70;;;;;;;23.08;60.45;98319.31;4383577;32;20103;-94
2023/03/14 10:36:01;;;;;;;2.25;1.12;;;;;;;23.23;60.46;98317.69;4371977;32;20102;-94
2023/03/14 10:38:28;;;;;;;3.78;1.40;;;;;;;23.10;60.46;98310.19;4382086;32;20149;-94
2023/03/14 10:40:55;;;;;;;7.25;1.60;;;;;;;23.11;60.46;98311.84;4368709;32;20107;-94
2023/03/14 10:43:30;;;;;;;3.72;0.80;;;;;;;23.04;60.46;98313.50;4397041;32;20114;-94
2023/03/14 10:45:57;;;;;;;5.90;1.08;;;;;;;23.28;60.47;98328.62;4394311;32;20109;-93
2023/03/14 10:48:33;;;;;;;1.83;1.17;;;;;;;23.30;60.47;98300.09;4382406;32;20095;-94
2023/03/14 10:51:05;;;;;;;2.03;1.00;;;;;;;23.41;60.46;98305.06;4396209;32;20165;-94
2023/03/14 10:53:42;;;;;;;1.10;0.57;;;;;;;23.39;60.47;98301.75;4387534;32;20106;-94
2023/03/14 10:56:15;;;;;;;3.50;1.20;;;;;;;23.57;60.49;98296.31;4375989;32;20800;-90
2023/03/14 10:58:42;;;;;;;1.80;0.80;;;;;;;23.63;60.48;98286.81;4378330;32;20124;-91
2023/03/14 11:01:49;;;;;;;2.70;1.05;;;;;;;23.77;60.49;98283.50;4366209;32;20162;-92
2023/03/14 11:04:36;;;;;;;3.50;1.00;;;;;;;23.88;60.50;98276.00;4395331;32;20126;-93
2023/03/14 11:07:01;;;;;;;2.92;0.70;;;;;;;23.79;60.49;98276.19;4396349;32;20094;-94
2023/03/14 11:09:57;;;;;;;1.92;0.70;;;;;;;23.79;60.49;98276.19;4394779;32;20132;-94
2023/03/14 11:12:46;;;;;;;3.42;0.82;;;;;;;24.01;60.51;98243.59;4396114;32;20517;-92
2023/03/14 11:15:21;;;;;;;2.33;0.90;;;;;;;23.96;60.50;98258.41;4394570;32;20091;-94
2023/03/14 11:17:55;;;;;;;1.35;0.60;;;;;;;24.06;60.52;98249.22;4398731;32;20149;-93
2023/03/14 11:20:32;;;;;;;1.10;0.80;;;;;;;23.99;60.50;98256.22;4395165;32;20435;-92
2023/03/14 11:23:10;;;;;;;2.42;0.62;;;;;;;24.05;60.51;98236.94;4380956;32;20090;-92
2023/03/14 11:25:44;;;;;;;1.90;0.82;;;;;;;24.04;60.51;98235.28;4395858;32;20172;-91
2023/03/14 11:28:31;;;;;;;1.58;0.73;;;;;;;23.91;60.50;98237.66;4394459;32;20162;-92
2023/03/14 11:31:26;;;;;;;2.05;0.90;;;;;;;24.01;60.50;98232.13;4395082;32;20094;-92
2023/03/14 11:34:05;;;;;;;1.42;0.60;;;;;;;24.15;60.52;98223.44;4379732;32;20091;-92
2023/03/14 11:36:38;;;;;;;3.42;0.82;;;;;;;24.05;60.51;98217.50;4381107;32;20107;-94